sensor_id;sensor_type;location;lat;lon;timestamp;pressure;altitude;pressure_sealevel;temperature
19568;BMP280;9930;49.240;8.548;2023-03-14T00:00:17;98729.84;;;16.33
19568;BMP280;9930;49.240;8.548;2023-03-14T00:02:43;98733.25;;;16.33
19568;BMP280;9930;49.240;8.548;2023-03-14T00:05:09;98728.16;;;16.29
19568;BMP280;9930;49.240;8.548;2023-03-14T00:07:37;98726.44;;;16.31
19568;BMP280;9930;49.240;8.548;2023-03-14T00:10:07;98732.38;;;16.36
19568;BMP280;9930;49.240;8.548;2023-03-14T00:12:36;98731.50;;;16.35
19568;BMP280;9930;49.240;8.548;2023-03-14T00:15:02;98733.25;;;16.35
19568;BMP280;9930;49.240;8.548;2023-03-14T00:17:35;98723.91;;;16.28
19568;BMP280;9930;49.240;8.548;2023-03-14T00:20:03;98740.09;;;16.36
19568;BMP280;9930;49.240;8.548;2023-03-14T00:22:41;98733.22;;;16.36
19568;BMP280;9930;49.240;8.548;2023-03-14T00:25:11;98720.44;;;16.30
19568;BMP280;9930;49.240;8.548;2023-03-14T00:27:40;98734.03;;;16.38
19568;BMP280;9930;49.240;8.548;2023-03-14T00:30:09;98715.28;;;16.30
19568;BMP280;9930;49.240;8.548;2023-03-14T00:32:38;98726.31;;;16.40
19568;BMP280;9930;49.240;8.548;2023-03-14T00:35:07;98723.81;;;16.34
19568;BMP280;9930;49.240;8.548;2023-03-14T00:37:35;98721.25;;;16.34
19568;BMP280;9930;49.240;8.548;2023-03-14T00:40:00;98731.47;;;16.40
19568;BMP280;9930;49.240;8.548;2023-03-14T00:42:31;98715.22;;;16.36
19568;BMP280;9930;49.240;8.548;2023-03-14T00:44:57;98704.91;;;16.36
19568;BMP280;9930;49.240;8.548;2023-03-14T00:47:23;98717.75;;;16.39
19568;BMP280;9930;49.240;8.548;2023-03-14T00:49:48;98720.25;;;16.45
19568;BMP280;9930;49.240;8.548;2023-03-14T00:52:14;98735.66;;;16.45
19568;BMP280;9930;49.240;8.548;2023-03-14T00:54:40;98739.97;;;16.45
19568;BMP280;9930;49.240;8.548;2023-03-14T00:57:06;98726.34;;;16.37
19568;BMP280;9930;49.240;8.548;2023-03-14T00:59:31;98727.19;;;16.37
19568;BMP280;9930;49.240;8.548;2023-03-14T01:02:01;98734.03;;;16.38
19568;BMP280;9930;49.240;8.548;2023-03-14T01:04:27;98745.09;;;16.46
19568;BMP280;9930;49.240;8.548;2023-03-14T01:06:58;98751.97;;;16.46
19568;BMP280;9930;49.240;8.548;2023-03-14T01:09:24;98751.13;;;16.44
19568;BMP280;9930;49.240;8.548;2023-03-14T01:11:52;98741.75;;;16.40
19568;BMP280;9930;49.240;8.548;2023-03-14T01:14:18;98731.47;;;16.40
19568;BMP280;9930;49.240;8.548;2023-03-14T01:16:44;98740.03;;;16.39
19568;BMP280;9930;49.240;8.548;2023-03-14T01:19:10;98724.56;;;16.43
19568;BMP280;9930;49.240;8.548;2023-03-14T01:21:36;98727.13;;;16.43
19568;BMP280;9930;49.240;8.548;2023-03-14T01:24:04;98715.94;;;16.46
19568;BMP280;9930;49.240;8.548;2023-03-14T01:26:34;98726.19;;;16.49
19568;BMP280;9930;49.240;8.548;2023-03-14T01:29:00;98718.47;;;16.49
19568;BMP280;9930;49.240;8.548;2023-03-14T01:31:29;98720.16;;;16.50
19568;BMP280;9930;49.240;8.548;2023-03-14T01:33:57;98708.25;;;16.44
19568;BMP280;9930;49.240;8.548;2023-03-14T01:36:25;98710.72;;;16.50
19568;BMP280;9930;49.240;8.548;2023-03-14T01:38:54;98681.69;;;16.41
19568;BMP280;9930;49.240;8.548;2023-03-14T01:41:26;98699.66;;;16.44
19568;BMP280;9930;49.240;8.548;2023-03-14T01:43:53;98688.56;;;16.40
19568;BMP280;9930;49.240;8.548;2023-03-14T01:52:28;98673.25;;;16.31
19568;BMP280;9930;49.240;8.548;2023-03-14T01:55:06;98653.72;;;16.18
19568;BMP280;9930;49.240;8.548;2023-03-14T01:57:43;98641.72;;;16.17
19568;BMP280;9930;49.240;8.548;2023-03-14T02:00:26;98642.56;;;16.17
19568;BMP280;9930;49.240;8.548;2023-03-14T02:03:02;98628.94;;;16.12
19568;BMP280;9930;49.240;8.548;2023-03-14T02:05:38;98643.50;;;16.13
19568;BMP280;9930;49.240;8.548;2023-03-14T02:08:09;98616.13;;;16.08
19568;BMP280;9930;49.240;8.548;2023-03-14T02:10:45;98625.47;;;16.15
19568;BMP280;9930;49.240;8.548;2023-03-14T02:13:14;98607.59;;;16.06
19568;BMP280;9930;49.240;8.548;2023-03-14T02:15:41;98634.94;;;16.11
19568;BMP280;9930;49.240;8.548;2023-03-14T02:18:08;98626.38;;;16.11
19568;BMP280;9930;49.240;8.548;2023-03-14T02:21:04;98619.63;;;16.02
19568;BMP280;9930;49.240;8.548;2023-03-14T02:26:24;98621.38;;;16.00
19568;BMP280;9930;49.240;8.548;2023-03-14T02:28:56;98620.53;;;15.98
19568;BMP280;9930;49.240;8.548;2023-03-14T02:31:23;98596.84;;;15.76
19568;BMP280;9930;49.240;8.548;2023-03-14T02:33:52;98608.66;;;15.90
19568;BMP280;9930;49.240;8.548;2023-03-14T02:36:21;98596.72;;;15.85
19568;BMP280;9930;49.240;8.548;2023-03-14T02:39:21;98620.72;;;15.86
19568;BMP280;9930;49.240;8.548;2023-03-14T02:41:48;98597.69;;;15.77
19568;BMP280;9930;49.240;8.548;2023-03-14T02:44:16;98601.97;;;15.76
19568;BMP280;9930;49.240;8.548;2023-03-14T02:46:43;98604.56;;;15.75
19568;BMP280;9930;49.240;8.548;2023-03-14T02:49:14;98602.00;;;15.73
19568;BMP280;9930;49.240;8.548;2023-03-14T02:51:44;98596.88;;;15.72
19568;BMP280;9930;49.240;8.548;2023-03-14T02:54:14;98581.56;;;15.64
19568;BMP280;9930;49.240;8.548;2023-03-14T02:56:40;98599.44;;;15.73
19568;BMP280;9930;49.240;8.548;2023-03-14T02:59:06;98600.31;;;15.72
19568;BMP280;9930;49.240;8.548;2023-03-14T03:01:35;98593.47;;;15.71
19568;BMP280;9930;49.240;8.548;2023-03-14T03:04:06;98589.28;;;15.63
19568;BMP280;9930;49.240;8.548;2023-03-14T03:06:32;98597.88;;;15.62
19568;BMP280;9930;49.240;8.548;2023-03-14T03:08:57;98596.94;;;15.67
19568;BMP280;9930;49.240;8.548;2023-03-14T03:11:23;98571.31;;;15.61
19568;BMP280;9930;49.240;8.548;2023-03-14T03:13:54;98564.53;;;15.55
19568;BMP280;9930;49.240;8.548;2023-03-14T03:16:20;98569.56;;;15.66
19568;BMP280;9930;49.240;8.548;2023-03-14T03:18:48;98561.81;;;15.68
19568;BMP280;9930;49.240;8.548;2023-03-14T03:21:16;98551.69;;;15.59
19568;BMP280;9930;49.240;8.548;2023-03-14T03:23:43;98561.03;;;15.61
19568;BMP280;9930;49.240;8.548;2023-03-14T03:26:09;98556.72;;;15.65
19568;BMP280;9930;49.240;8.548;2023-03-14T03:28:40;98552.41;;;15.67
19568;BMP280;9930;49.240;8.548;2023-03-14T03:31:11;98548.19;;;15.61
19568;BMP280;9930;49.240;8.548;2023-03-14T03:33:39;98526.88;;;15.58
19568;BMP280;9930;49.240;8.548;2023-03-14T03:36:06;98523.34;;;15.63
19568;BMP280;9930;49.240;8.548;2023-03-14T03:38:31;98516.59;;;15.58
19568;BMP280;9930;49.240;8.548;2023-03-14T03:40:57;98525.91;;;15.63
19568;BMP280;9930;49.240;8.548;2023-03-14T03:43:26;98520.84;;;15.60
19568;BMP280;9930;49.240;8.548;2023-03-14T03:45:52;98513.16;;;15.55
19568;BMP280;9930;49.240;8.548;2023-03-14T03:48:25;98524.28;;;15.59
19568;BMP280;9930;49.240;8.548;2023-03-14T03:50:52;98513.19;;;15.52
19568;BMP280;9930;49.240;8.548;2023-03-14T03:53:18;98522.59;;;15.58
19568;BMP280;9930;49.240;8.548;2023-03-14T03:55:46;98523.44;;;15.55
19568;BMP280;9930;49.240;8.548;2023-03-14T03:58:14;98522.59;;;15.53
19568;BMP280;9930;49.240;8.548;2023-03-14T04:00:40;98517.44;;;15.55
19568;BMP280;9930;49.240;8.548;2023-03-14T04:03:06;98515.78;;;15.52
19568;BMP280;9930;49.240;8.548;2023-03-14T04:05:32;98508.09;;;15.51
19568;BMP280;9930;49.240;8.548;2023-03-14T04:07:57;98495.34;;;15.42
19568;BMP280;9930;49.240;8.548;2023-03-14T04:10:23;98510.72;;;15.45
19568;BMP280;9930;49.240;8.548;2023-03-14T04:12:49;98500.47;;;15.43
19568;BMP280;9930;49.240;8.548;2023-03-14T04:15:14;98504.75;;;15.43
19568;BMP280;9930;49.240;8.548;2023-03-14T04:17:40;98488.56;;;15.38
19568;BMP280;9930;49.240;8.548;2023-03-14T04:20:10;98488.53;;;15.39
19568;BMP280;9930;49.240;8.548;2023-03-14T04:22:38;98483.41;;;15.39
19568;BMP280;9930;49.240;8.548;2023-03-14T04:25:07;98502.19;;;15.43
19568;BMP280;9930;49.240;8.548;2023-03-14T04:27:35;98488.56;;;15.36
19568;BMP280;9930;49.240;8.548;2023-03-14T04:30:00;98502.22;;;15.40
19568;BMP280;9930;49.240;8.548;2023-03-14T04:32:26;98493.66;;;15.41
19568;BMP280;9930;49.240;8.548;2023-03-14T04:34:55;98485.94;;;15.41
19568;BMP280;9930;49.240;8.548;2023-03-14T04:37:24;98471.47;;;15.35
19568;BMP280;9930;49.240;8.548;2023-03-14T04:39:49;98470.63;;;15.35
19568;BMP280;9930;49.240;8.548;2023-03-14T04:42:17;98474.81;;;15.40
19568;BMP280;9930;49.240;8.548;2023-03-14T04:44:45;98473.97;;;15.40
19568;BMP280;9930;49.240;8.548;2023-03-14T04:47:14;98473.16;;;15.36
19568;BMP280;9930;49.240;8.548;2023-03-14T04:49:42;98462.06;;;15.34
19568;BMP280;9930;49.240;8.548;2023-03-14T04:52:10;98456.13;;;15.31
19568;BMP280;9930;49.240;8.548;2023-03-14T04:54:36;98454.44;;;15.28
19568;BMP280;9930;49.240;8.548;2023-03-14T04:57:01;98459.59;;;15.27
19568;BMP280;9930;49.240;8.548;2023-03-14T04:59:32;98454.47;;;15.27
19568;BMP280;9930;49.240;8.548;2023-03-14T05:02:16;98449.41;;;15.20
19568;BMP280;9930;49.240;8.548;2023-03-14T05:04:45;98439.13;;;15.20
19568;BMP280;9930;49.240;8.548;2023-03-14T05:07:13;98445.94;;;15.25
19568;BMP280;9930;49.240;8.548;2023-03-14T05:09:39;98453.63;;;15.26
19568;BMP280;9930;49.240;8.548;2023-03-14T05:12:05;98456.94;;;15.34
19568;BMP280;9930;49.240;8.548;2023-03-14T05:14:33;98446.75;;;15.28
19568;BMP280;9930;49.240;8.548;2023-03-14T05:17:01;98447.53;;;15.33
19568;BMP280;9930;49.240;8.548;2023-03-14T05:19:27;98453.44;;;15.38
19568;BMP280;9930;49.240;8.548;2023-03-14T05:21:57;98462.00;;;15.40
19568;BMP280;9930;49.240;8.548;2023-03-14T05:24:25;98455.16;;;15.39
19568;BMP280;9930;49.240;8.548;2023-03-14T05:26:55;98463.66;;;15.44
19568;BMP280;9930;49.240;8.548;2023-03-14T05:29:26;98452.53;;;15.44
19568;BMP280;9930;49.240;8.548;2023-03-14T05:31:57;98455.97;;;15.43
19568;BMP280;9930;49.240;8.548;2023-03-14T05:34:25;98439.66;;;15.45
19568;BMP280;9930;49.240;8.548;2023-03-14T05:36:54;98462.69;;;15.51
19568;BMP280;9930;49.240;8.548;2023-03-14T05:39:24;98454.13;;;15.52
19568;BMP280;9930;49.240;8.548;2023-03-14T05:41:50;98449.81;;;15.53
19568;BMP280;9930;49.240;8.548;2023-03-14T05:44:17;98445.56;;;15.52
19568;BMP280;9930;49.240;8.548;2023-03-14T05:46:42;98442.09;;;15.54
19568;BMP280;9930;49.240;8.548;2023-03-14T05:49:10;98432.69;;;15.55
19568;BMP280;9930;49.240;8.548;2023-03-14T05:51:36;98421.63;;;15.50
19568;BMP280;9930;49.240;8.548;2023-03-14T05:54:04;98415.53;;;15.55
19568;BMP280;9930;49.240;8.548;2023-03-14T05:56:29;98426.69;;;15.54
19568;BMP280;9930;49.240;8.548;2023-03-14T05:59:00;98436.97;;;15.53
19568;BMP280;9930;49.240;8.548;2023-03-14T06:01:30;98414.88;;;15.43
19568;BMP280;9930;49.240;8.548;2023-03-14T06:03:58;98400.31;;;15.43
19568;BMP280;9930;49.240;8.548;2023-03-14T06:06:24;98421.66;;;15.47
19568;BMP280;9930;49.240;8.548;2023-03-14T06:08:50;98418.31;;;15.40
19568;BMP280;9930;49.240;8.548;2023-03-14T06:11:17;98425.09;;;15.46
19568;BMP280;9930;49.240;8.548;2023-03-14T06:13:45;98426.78;;;15.47
19568;BMP280;9930;49.240;8.548;2023-03-14T06:16:16;98410.59;;;15.42
19568;BMP280;9930;49.240;8.548;2023-03-14T06:18:41;98422.53;;;15.46
19568;BMP280;9930;49.240;8.548;2023-03-14T06:21:10;98430.16;;;15.52
19568;BMP280;9930;49.240;8.548;2023-03-14T06:23:38;98434.50;;;15.47
19568;BMP280;9930;49.240;8.548;2023-03-14T06:26:06;98422.50;;;15.47
19568;BMP280;9930;49.240;8.548;2023-03-14T06:28:39;98425.00;;;15.52
19568;BMP280;9930;49.240;8.548;2023-03-14T06:31:05;98437.84;;;15.53
19568;BMP280;9930;49.240;8.548;2023-03-14T06:33:31;98431.81;;;15.54
19568;BMP280;9930;49.240;8.548;2023-03-14T06:36:02;98446.28;;;15.62
19568;BMP280;9930;49.240;8.548;2023-03-14T06:38:28;98446.25;;;15.65
19568;BMP280;9930;49.240;8.548;2023-03-14T06:40:55;98404.59;;;15.43
19568;BMP280;9930;49.240;8.548;2023-03-14T06:43:22;98432.56;;;15.63
19568;BMP280;9930;49.240;8.548;2023-03-14T06:45:56;98435.16;;;15.61
19568;BMP280;9930;49.240;8.548;2023-03-14T06:48:25;98425.72;;;15.62
19568;BMP280;9930;49.240;8.548;2023-03-14T06:50:55;98440.22;;;15.66
19568;BMP280;9930;49.240;8.548;2023-03-14T06:53:25;98448.72;;;15.71
19568;BMP280;9930;49.240;8.548;2023-03-14T06:55:51;98434.22;;;15.67
19568;BMP280;9930;49.240;8.548;2023-03-14T06:58:20;98437.63;;;15.69
19568;BMP280;9930;49.240;8.548;2023-03-14T07:00:45;98431.59;;;15.70
19568;BMP280;9930;49.240;8.548;2023-03-14T07:03:16;98457.13;;;15.82
19568;BMP280;9930;49.240;8.548;2023-03-14T07:05:47;98452.81;;;15.84
19568;BMP280;9930;49.240;8.548;2023-03-14T07:08:13;98445.94;;;15.84
19568;BMP280;9930;49.240;8.548;2023-03-14T07:10:42;98415.38;;;15.68
19568;BMP280;9930;49.240;8.548;2023-03-14T07:13:10;98440.81;;;15.84
19568;BMP280;9930;49.240;8.548;2023-03-14T07:15:36;98440.78;;;15.86
19568;BMP280;9930;49.240;8.548;2023-03-14T07:18:04;98446.75;;;15.88
19568;BMP280;9930;49.240;8.548;2023-03-14T07:20:30;98442.47;;;15.88
19568;BMP280;9930;49.240;8.548;2023-03-14T07:22:58;98416.16;;;15.71
19568;BMP280;9930;49.240;8.548;2023-03-14T07:25:28;98445.84;;;15.91
19568;BMP280;9930;49.240;8.548;2023-03-14T07:27:56;98451.81;;;15.93
19568;BMP280;9930;49.240;8.548;2023-03-14T07:30:23;98457.75;;;15.96
19568;BMP280;9930;49.240;8.548;2023-03-14T07:32:49;98459.44;;;15.99
19568;BMP280;9930;49.240;8.548;2023-03-14T07:35:17;98453.47;;;15.97
19568;BMP280;9930;49.240;8.548;2023-03-14T07:37:43;98460.16;;;16.07
19568;BMP280;9930;49.240;8.548;2023-03-14T07:40:10;98456.69;;;16.09
19568;BMP280;9930;49.240;8.548;2023-03-14T07:42:38;98448.22;;;16.04
19568;BMP280;9930;49.240;8.548;2023-03-14T07:45:04;98465.91;;;16.23
19568;BMP280;9930;49.240;8.548;2023-03-14T07:47:30;98469.22;;;16.29
19568;BMP280;9930;49.240;8.548;2023-03-14T07:49:56;98464.00;;;16.35
19568;BMP280;9930;49.240;8.548;2023-03-14T07:52:22;98457.09;;;16.37
19568;BMP280;9930;49.240;8.548;2023-03-14T07:54:49;98462.22;;;16.39
19568;BMP280;9930;49.240;8.548;2023-03-14T07:57:15;98458.78;;;16.38
19568;BMP280;9930;49.240;8.548;2023-03-14T07:59:43;98442.56;;;16.35
19568;BMP280;9930;49.240;8.548;2023-03-14T08:02:13;98459.53;;;16.45
19568;BMP280;9930;49.240;8.548;2023-03-14T08:04:39;98448.41;;;16.44
19568;BMP280;9930;49.240;8.548;2023-03-14T08:07:05;98459.41;;;16.52
19568;BMP280;9930;49.240;8.548;2023-03-14T08:09:32;98448.38;;;16.46
19568;BMP280;9930;49.240;8.548;2023-03-14T08:12:00;98470.50;;;16.56
19568;BMP280;9930;49.240;8.548;2023-03-14T08:14:26;98477.31;;;16.59
19568;BMP280;9930;49.240;8.548;2023-03-14T08:16:55;98466.25;;;16.53
19568;BMP280;9930;49.240;8.548;2023-03-14T08:19:22;98483.28;;;16.61
19568;BMP280;9930;49.240;8.548;2023-03-14T08:21:52;98487.53;;;16.63
19568;BMP280;9930;49.240;8.548;2023-03-14T08:24:21;98486.66;;;16.66
19568;BMP280;9930;49.240;8.548;2023-03-14T08:26:46;98477.19;;;16.68
19568;BMP280;9930;49.240;8.548;2023-03-14T08:29:12;98478.81;;;16.72
19568;BMP280;9930;49.240;8.548;2023-03-14T08:31:40;98464.19;;;16.74
19568;BMP280;9930;49.240;8.548;2023-03-14T08:34:07;98443.78;;;16.63
19568;BMP280;9930;49.240;8.548;2023-03-14T08:36:33;98459.91;;;16.74
19568;BMP280;9930;49.240;8.548;2023-03-14T08:38:59;98443.56;;;16.75
19568;BMP280;9930;49.240;8.548;2023-03-14T08:41:31;98467.31;;;16.91
19568;BMP280;9930;49.240;8.548;2023-03-14T08:43:57;98479.22;;;16.97
19568;BMP280;9930;49.240;8.548;2023-03-14T08:46:25;98485.97;;;17.02
19568;BMP280;9930;49.240;8.548;2023-03-14T08:48:51;98483.38;;;17.04
19568;BMP280;9930;49.240;8.548;2023-03-14T08:51:17;98486.75;;;17.06
19568;BMP280;9930;49.240;8.548;2023-03-14T08:53:45;98488.44;;;17.07
19568;BMP280;9930;49.240;8.548;2023-03-14T08:56:13;98490.13;;;17.09
19568;BMP280;9930;49.240;8.548;2023-03-14T08:58:42;98486.63;;;17.12
19568;BMP280;9930;49.240;8.548;2023-03-14T09:01:10;98492.59;;;17.14
19568;BMP280;9930;49.240;8.548;2023-03-14T09:03:38;98477.97;;;17.16
19568;BMP280;9930;49.240;8.548;2023-03-14T09:06:08;98474.44;;;17.22
19568;BMP280;9930;49.240;8.548;2023-03-14T09:08:34;98488.78;;;17.33
19568;BMP280;9930;49.240;8.548;2023-03-14T09:11:02;98499.88;;;17.37
19568;BMP280;9930;49.240;8.548;2023-03-14T09:13:28;98495.59;;;17.36
19568;BMP280;9930;49.240;8.548;2023-03-14T09:15:55;98488.00;;;17.30
19568;BMP280;9930;49.240;8.548;2023-03-14T09:18:24;98475.22;;;17.25
19568;BMP280;9930;49.240;8.548;2023-03-14T09:20:50;98500.72;;;17.37
19568;BMP280;9930;49.240;8.548;2023-03-14T09:23:16;98507.59;;;17.37
19568;BMP280;9930;49.240;8.548;2023-03-14T09:25:42;98501.59;;;17.36
19568;BMP280;9930;49.240;8.548;2023-03-14T09:28:10;98499.84;;;17.38
19568;BMP280;9930;49.240;8.548;2023-03-14T09:30:36;98494.50;;;17.47
19568;BMP280;9930;49.240;8.548;2023-03-14T09:33:04;98482.53;;;17.45
19568;BMP280;9930;49.240;8.548;2023-03-14T09:35:39;98504.47;;;17.66
19568;BMP280;9930;49.240;8.548;2023-03-14T09:38:13;98500.94;;;17.70
19568;BMP280;9930;49.240;8.548;2023-03-14T09:40:39;98506.06;;;17.71
19568;BMP280;9930;49.240;8.548;2023-03-14T09:43:05;98511.03;;;17.79
19568;BMP280;9930;49.240;8.548;2023-03-14T09:45:38;98497.31;;;17.78
19568;BMP280;9930;49.240;8.548;2023-03-14T09:48:14;98509.84;;;17.94
19568;BMP280;9930;49.240;8.548;2023-03-14T09:50:48;98526.91;;;17.99
19568;BMP280;9930;49.240;8.548;2023-03-14T09:53:19;98535.56;;;17.97
19568;BMP280;9930;49.240;8.548;2023-03-14T09:55:51;98533.06;;;17.94
19568;BMP280;9930;49.240;8.548;2023-03-14T09:58:24;98541.66;;;17.94
19568;BMP280;9930;49.240;8.548;2023-03-14T10:00:55;98543.53;;;17.86
19568;BMP280;9930;49.240;8.548;2023-03-14T10:03:31;98543.69;;;17.80
19568;BMP280;9930;49.240;8.548;2023-03-14T10:05:57;98536.25;;;17.66
19568;BMP280;9930;49.240;8.548;2023-03-14T10:08:23;98546.53;;;17.66
19568;BMP280;9930;49.240;8.548;2023-03-14T10:10:52;98540.53;;;17.64
19568;BMP280;9930;49.240;8.548;2023-03-14T10:13:24;98551.84;;;17.57
19568;BMP280;9930;49.240;8.548;2023-03-14T10:18:30;98526.44;;;17.40
19568;BMP280;9930;49.240;8.548;2023-03-14T10:21:26;98536.75;;;17.40
19568;BMP280;9930;49.240;8.548;2023-03-14T10:24:16;98545.28;;;17.42
19568;BMP280;9930;49.240;8.548;2023-03-14T10:26:45;98540.94;;;17.44
19568;BMP280;9930;49.240;8.548;2023-03-14T10:29:13;98518.03;;;17.31
19568;BMP280;9930;49.240;8.548;2023-03-14T10:32:10;98534.06;;;17.45
19568;BMP280;9930;49.240;8.548;2023-03-14T10:34:45;98526.41;;;17.42
19568;BMP280;9930;49.240;8.548;2023-03-14T10:37:28;98530.00;;;17.33
19568;BMP280;9930;49.240;8.548;2023-03-14T10:39:58;98538.56;;;17.35
19568;BMP280;9930;49.240;8.548;2023-03-14T10:42:34;98520.75;;;17.23
19568;BMP280;9930;49.240;8.548;2023-03-14T10:45:28;98530.97;;;17.28
19568;BMP280;9930;49.240;8.548;2023-03-14T10:48:21;98534.44;;;17.27
19568;BMP280;9930;49.240;8.548;2023-03-14T10:56:21;98522.84;;;17.04
19568;BMP280;9930;49.240;8.548;2023-03-14T10:58:58;98525.59;;;16.95
19568;BMP280;9930;49.240;8.548;2023-03-14T11:01:55;98537.63;;;16.93
19568;BMP280;9930;49.240;8.548;2023-03-14T11:07:42;98552.47;;;16.79
19568;BMP280;9930;49.240;8.548;2023-03-14T11:10:43;98556.94;;;16.69
19568;BMP280;9930;49.240;8.548;2023-03-14T11:22:06;98569.34;;;16.41
19568;BMP280;9930;49.240;8.548;2023-03-14T11:27:40;98570.41;;;16.30
19568;BMP280;9930;49.240;8.548;2023-03-14T11:33:17;98582.38;;;16.31
19568;BMP280;9930;49.240;8.548;2023-03-14T11:36:04;98592.69;;;16.29
19568;BMP280;9930;49.240;8.548;2023-03-14T11:38:43;98594.47;;;16.26
19568;BMP280;9930;49.240;8.548;2023-03-14T11:41:25;98600.50;;;16.23
19568;BMP280;9930;49.240;8.548;2023-03-14T11:43:58;98602.38;;;16.10
19568;BMP280;9930;49.240;8.548;2023-03-14T11:46:34;98633.19;;;16.15
19568;BMP280;9930;49.240;8.548;2023-03-14T11:49:47;98646.03;;;16.15
19568;BMP280;9930;49.240;8.548;2023-03-14T11:57:41;98683.84;;;16.07
19568;BMP280;9930;49.240;8.548;2023-03-14T12:00:22;98695.94;;;16.00
19568;BMP280;9930;49.240;8.548;2023-03-14T12:09:02;98739.72;;;15.94
19568;BMP280;9930;49.240;8.548;2023-03-14T12:12:10;98744.94;;;15.85
19568;BMP280;9930;49.240;8.548;2023-03-14T12:14:47;98753.56;;;15.81
19568;BMP280;9930;49.240;8.548;2023-03-14T12:17:24;98782.72;;;15.78
19568;BMP280;9930;49.240;8.548;2023-03-14T12:20:19;98788.78;;;15.70
19568;BMP280;9930;49.240;8.548;2023-03-14T12:22:55;98790.56;;;15.63
19568;BMP280;9930;49.240;8.548;2023-03-14T12:25:40;98804.25;;;15.64
19568;BMP280;9930;49.240;8.548;2023-03-14T12:28:31;98801.72;;;15.61
19568;BMP280;9930;49.240;8.548;2023-03-14T12:42:20;98854.84;;;15.60
19568;BMP280;9930;49.240;8.548;2023-03-14T12:44:50;98877.97;;;15.60
19568;BMP280;9930;49.240;8.548;2023-03-14T12:49:51;98902.84;;;15.58
19568;BMP280;9930;49.240;8.548;2023-03-14T12:52:37;98893.41;;;15.52
19568;BMP280;9930;49.240;8.548;2023-03-14T12:55:46;98895.09;;;15.57
19568;BMP280;9930;49.240;8.548;2023-03-14T13:01:20;98915.63;;;15.61
19568;BMP280;9930;49.240;8.548;2023-03-14T13:03:57;98916.41;;;15.72
19568;BMP280;9930;49.240;8.548;2023-03-14T13:12:14;98941.94;;;15.97
19568;BMP280;9930;49.240;8.548;2023-03-14T13:14:46;98959.91;;;16.01
19568;BMP280;9930;49.240;8.548;2023-03-14T13:17:18;98959.03;;;16.04
19568;BMP280;9930;49.240;8.548;2023-03-14T13:19:54;98959.00;;;16.08
19568;BMP280;9930;49.240;8.548;2023-03-14T13:22:32;98960.72;;;16.06
19568;BMP280;9930;49.240;8.548;2023-03-14T13:25:09;98986.31;;;16.20
19568;BMP280;9930;49.240;8.548;2023-03-14T13:27:38;98988.06;;;16.18
19568;BMP280;9930;49.240;8.548;2023-03-14T13:32:44;98999.25;;;16.12
19568;BMP280;9930;49.240;8.548;2023-03-14T13:35:17;99010.41;;;16.11
19568;BMP280;9930;49.240;8.548;2023-03-14T13:37:44;99020.75;;;16.02
19568;BMP280;9930;49.240;8.548;2023-03-14T13:40:25;99026.72;;;16.04
19568;BMP280;9930;49.240;8.548;2023-03-14T13:43:09;99030.19;;;16.02
19568;BMP280;9930;49.240;8.548;2023-03-14T13:48:19;99066.22;;;15.97
19568;BMP280;9930;49.240;8.548;2023-03-14T13:50:54;99057.66;;;15.95
19568;BMP280;9930;49.240;8.548;2023-03-14T13:53:21;99071.38;;;15.91
19568;BMP280;9930;49.240;8.548;2023-03-14T13:55:56;99052.56;;;15.83
19568;BMP280;9930;49.240;8.548;2023-03-14T13:58:30;99078.25;;;15.87
19568;BMP280;9930;49.240;8.548;2023-03-14T14:01:02;99084.25;;;15.86
19568;BMP280;9930;49.240;8.548;2023-03-14T14:03:32;99087.66;;;15.90
19568;BMP280;9930;49.240;8.548;2023-03-14T14:05:59;99091.13;;;15.87
19568;BMP280;9930;49.240;8.548;2023-03-14T14:08:26;99074.88;;;15.79
19568;BMP280;9930;49.240;8.548;2023-03-14T14:11:01;99116.00;;;15.79
19568;BMP280;9930;49.240;8.548;2023-03-14T14:13:32;99122.88;;;15.73
19568;BMP280;9930;49.240;8.548;2023-03-14T14:16:01;99128.88;;;15.70
19568;BMP280;9930;49.240;8.548;2023-03-14T14:18:28;99122.91;;;15.64
19568;BMP280;9930;49.240;8.548;2023-03-14T14:20:56;99146.03;;;15.65
19568;BMP280;9930;49.240;8.548;2023-03-14T14:23:27;99152.88;;;15.69
19568;BMP280;9930;49.240;8.548;2023-03-14T14:25:58;99163.16;;;15.72
19568;BMP280;9930;49.240;8.548;2023-03-14T14:28:33;99169.97;;;15.79
19568;BMP280;9930;49.240;8.548;2023-03-14T14:31:21;99160.56;;;15.75
19568;BMP280;9930;49.240;8.548;2023-03-14T14:33:59;99161.41;;;15.79
19568;BMP280;9930;49.240;8.548;2023-03-14T14:36:38;99180.25;;;15.79
19568;BMP280;9930;49.240;8.548;2023-03-14T14:41:40;99186.25;;;15.78
19568;BMP280;9930;49.240;8.548;2023-03-14T14:44:07;99210.25;;;15.82
19568;BMP280;9930;49.240;8.548;2023-03-14T14:46:37;99219.69;;;15.78
19568;BMP280;9930;49.240;8.548;2023-03-14T14:49:12;99212.81;;;15.77
19568;BMP280;9930;49.240;8.548;2023-03-14T14:51:48;99235.09;;;15.78
19568;BMP280;9930;49.240;8.548;2023-03-14T14:54:19;99229.97;;;15.78
19568;BMP280;9930;49.240;8.548;2023-03-14T14:56:53;99215.41;;;15.73
19568;BMP280;9930;49.240;8.548;2023-03-14T14:59:27;99235.97;;;15.79
19568;BMP280;9930;49.240;8.548;2023-03-14T15:02:02;99243.66;;;15.82
19568;BMP280;9930;49.240;8.548;2023-03-14T15:04:36;99246.22;;;15.82
19568;BMP280;9930;49.240;8.548;2023-03-14T15:07:07;99235.97;;;15.73
19568;BMP280;9930;49.240;8.548;2023-03-14T15:09:36;99231.69;;;15.70
19568;BMP280;9930;49.240;8.548;2023-03-14T15:12:04;99256.53;;;15.74
19568;BMP280;9930;49.240;8.548;2023-03-14T15:14:32;99239.41;;;15.73
19568;BMP280;9930;49.240;8.548;2023-03-14T15:17:00;99236.84;;;15.67
19568;BMP280;9930;49.240;8.548;2023-03-14T15:19:26;99244.53;;;15.76
19568;BMP280;9930;49.240;8.548;2023-03-14T15:21:54;99244.53;;;15.79
19568;BMP280;9930;49.240;8.548;2023-03-14T15:24:21;99252.22;;;15.82
19568;BMP280;9930;49.240;8.548;2023-03-14T15:26:47;99244.53;;;15.84
19568;BMP280;9930;49.240;8.548;2023-03-14T15:29:15;99252.22;;;15.82
19568;BMP280;9930;49.240;8.548;2023-03-14T15:31:42;99251.41;;;15.73
19568;BMP280;9930;49.240;8.548;2023-03-14T15:34:09;99265.97;;;15.75
19568;BMP280;9930;49.240;8.548;2023-03-14T15:36:40;99253.13;;;15.65
19568;BMP280;9930;49.240;8.548;2023-03-14T15:39:10;99274.53;;;15.70
19568;BMP280;9930;49.240;8.548;2023-03-14T15:41:37;99274.53;;;15.67
19568;BMP280;9930;49.240;8.548;2023-03-14T15:44:07;99273.69;;;15.65
19568;BMP280;9930;49.240;8.548;2023-03-14T15:46:35;99263.41;;;15.55
19568;BMP280;9930;49.240;8.548;2023-03-14T15:49:01;99288.28;;;15.60
19568;BMP280;9930;49.240;8.548;2023-03-14T15:51:29;99278.88;;;15.60
19568;BMP280;9930;49.240;8.548;2023-03-14T15:53:55;99274.56;;;15.51
19568;BMP280;9930;49.240;8.548;2023-03-14T15:56:22;99281.41;;;15.51